Time;durP1;ratioP1;P1;durP2;ratioP2;P2;SDS_P1;SDS_P2;PMS_P1;PMS_P2;Temp;Humidity;BMP_temperature;BMP_pressure;BME280_temperature;BME280_humidity;BME280_pressure;Samples;Min_cycle;Max_cycle;Signal;HPM_P1;HPM_P2
2023/07/21 00:00:21;;;;;;;3.50;1.50;;;;;;;-145.41;100.00;58600.66;5027841;28;20029;-78
2023/07/21 00:02:50;;;;;;;4.30;1.45;;;;;;;-145.41;100.00;58600.66;5028482;28;20036;-79
2023/07/21 00:05:16;;;;;;;3.60;1.38;;;;;;;-145.41;100.00;58600.66;5030037;28;20038;-79
2023/07/21 00:07:42;;;;;;;2.75;1.45;;;;;;;-145.41;100.00;58600.66;5029482;28;20047;-79
2023/07/21 00:10:08;;;;;;;4.53;1.60;;;;;;;-145.41;100.00;58600.66;5029036;28;20092;-79
2023/07/21 00:12:40;;;;;;;2.53;1.17;;;;;;;-145.41;100.00;58600.66;5027839;28;20405;-79
2023/07/21 00:15:06;;;;;;;3.40;1.70;;;;;;;-145.41;100.00;58600.66;5025616;28;20041;-79
2023/07/21 00:17:34;;;;;;;2.75;1.73;;;;;;;-145.41;100.00;58600.66;5029566;28;20644;-79
2023/07/21 00:20:10;;;;;;;2.25;1.38;;;;;;;-145.41;100.00;58600.66;5028586;28;20041;-79
2023/07/21 00:22:35;;;;;;;7.95;2.08;;;;;;;-145.41;100.00;58600.66;5029827;28;20091;-79
2023/07/21 00:25:01;;;;;;;3.42;1.73;;;;;;;-145.41;100.00;58600.66;5029895;28;20038;-79
2023/07/21 00:27:27;;;;;;;3.28;2.25;;;;;;;-145.41;100.00;58600.66;5028978;28;20117;-79
2023/07/21 00:29:52;;;;;;;3.00;1.73;;;;;;;-145.41;100.00;58600.66;5028473;28;20044;-79
2023/07/21 00:32:19;;;;;;;4.28;2.10;;;;;;;-145.41;100.00;58600.66;5029088;28;20038;-79
2023/07/21 00:34:46;;;;;;;3.15;2.10;;;;;;;-145.41;100.00;58600.66;5010952;28;20022;-79
2023/07/21 00:37:12;;;;;;;3.08;1.80;;;;;;;-145.41;100.00;58600.66;5028505;28;20037;-79
2023/07/21 00:39:39;;;;;;;3.30;1.95;;;;;;;-145.41;100.00;58600.66;5028014;28;20591;-79
2023/07/21 00:42:04;;;;;;;4.68;2.50;;;;;;;-145.41;100.00;58600.66;5011779;28;20508;-79
2023/07/21 00:44:30;;;;;;;5.82;2.00;;;;;;;-145.41;100.00;58600.66;5025400;28;20038;-79
2023/07/21 00:46:55;;;;;;;3.58;2.00;;;;;;;-145.41;100.00;58600.66;5029231;28;20057;-79
2023/07/21 00:49:21;;;;;;;3.40;1.95;;;;;;;-145.41;100.00;58600.66;5026796;28;20034;-78
2023/07/21 00:51:47;;;;;;;4.40;2.58;;;;;;;-145.41;100.00;58600.66;5028313;28;20026;-78
2023/07/21 00:54:12;;;;;;;2.60;1.40;;;;;;;-145.41;100.00;58600.66;5028618;28;20083;-79
2023/07/21 00:56:37;;;;;;;3.30;2.00;;;;;;;-145.41;100.00;58600.66;5028129;28;20061;-79
2023/07/21 00:59:03;;;;;;;3.40;2.15;;;;;;;-145.41;100.00;58600.66;5026589;28;20033;-78
2023/07/21 01:01:29;;;;;;;2.55;1.58;;;;;;;-145.41;100.00;58600.66;5024962;28;20030;-79
2023/07/21 01:03:56;;;;;;;3.25;1.98;;;;;;;-145.41;100.00;58600.66;5022211;28;20122;-78
2023/07/21 01:06:27;;;;;;;2.95;1.63;;;;;;;-145.41;100.00;58600.66;5024718;28;20034;-78
2023/07/21 01:08:56;;;;;;;3.42;1.60;;;;;;;-145.41;100.00;58600.66;5012466;28;20046;-79
2023/07/21 01:11:24;;;;;;;3.35;1.92;;;;;;;-145.41;100.00;58600.66;5025105;28;20161;-78
2023/07/21 01:13:53;;;;;;;5.47;2.03;;;;;;;-145.41;100.00;58600.66;5026857;28;20490;-78
2023/07/21 01:16:20;;;;;;;4.57;1.70;;;;;;;-145.41;100.00;58600.66;5008904;28;20040;-78
2023/07/21 01:18:45;;;;;;;2.60;1.42;;;;;;;-145.41;100.00;58600.66;5026749;28;20037;-78
2023/07/21 01:21:16;;;;;;;2.50;1.35;;;;;;;-145.41;100.00;58600.66;5026061;28;20044;-78
2023/07/21 01:23:53;;;;;;;2.97;1.63;;;;;;;-145.41;100.00;58600.66;5005427;28;20044;-78
2023/07/21 01:26:20;;;;;;;3.17;1.80;;;;;;;-145.41;100.00;58600.66;5023931;28;20428;-78
2023/07/21 01:28:46;;;;;;;2.92;1.60;;;;;;;-145.41;100.00;58600.66;5025312;28;20037;-79
2023/07/21 01:31:13;;;;;;;5.13;2.13;;;;;;;-145.41;100.00;58600.66;5024709;28;20049;-78
2023/07/21 01:33:41;;;;;;;3.55;2.40;;;;;;;-145.41;100.00;58600.66;5015529;28;20083;-78
2023/07/21 01:36:07;;;;;;;2.65;1.48;;;;;;;-145.41;100.00;58600.66;5025184;28;20497;-78
2023/07/21 01:38:34;;;;;;;4.30;1.83;;;;;;;-145.41;100.00;58600.66;5025111;28;20029;-79
2023/07/21 01:41:00;;;;;;;3.90;1.60;;;;;;;-145.41;100.00;58600.66;5019742;28;20054;-79
2023/07/21 01:43:25;;;;;;;2.60;1.65;;;;;;;-145.41;100.00;58600.66;5026716;28;20053;-79
2023/07/21 01:45:51;;;;;;;2.67;1.75;;;;;;;-145.41;100.00;58600.66;5014378;28;20512;-78
2023/07/21 01:48:17;;;;;;;3.15;1.65;;;;;;;-145.41;100.00;58600.66;5026536;28;20048;-79
2023/07/21 01:50:43;;;;;;;2.97;1.80;;;;;;;-145.41;100.00;58600.66;5025454;28;20045;-78
2023/07/21 01:53:19;;;;;;;4.07;1.70;;;;;;;-145.41;100.00;58600.66;5024226;28;20519;-79
2023/07/21 01:56:07;;;;;;;4.82;1.90;;;;;;;-145.41;100.00;58600.66;5025085;28;20033;-79
2023/07/21 01:58:33;;;;;;;2.63;1.67;;;;;;;-145.41;100.00;58600.66;5025511;28;20037;-78
2023/07/21 02:01:01;;;;;;;3.60;2.30;;;;;;;-145.41;100.00;58600.66;5019189;28;20515;-78
2023/07/21 02:03:27;;;;;;;9.43;2.50;;;;;;;-145.41;100.00;58600.66;5019388;28;20042;-78
2023/07/21 02:05:52;;;;;;;3.15;1.83;;;;;;;-145.41;100.00;58600.66;5021539;28;20070;-78
2023/07/21 02:08:20;;;;;;;3.63;2.08;;;;;;;-145.41;100.00;58600.66;5022191;28;20026;-78
2023/07/21 02:10:46;;;;;;;4.18;2.00;;;;;;;-145.41;100.00;58600.66;5018514;28;20036;-78
2023/07/21 02:13:23;;;;;;;3.15;2.00;;;;;;;-145.41;100.00;58600.66;5020551;28;20018;-78
2023/07/21 02:15:48;;;;;;;2.92;1.60;;;;;;;-145.41;100.00;58600.66;5020405;28;20400;-78
2023/07/21 02:18:15;;;;;;;2.17;1.55;;;;;;;-145.41;100.00;58600.66;5021050;28;20520;-79
2023/07/21 02:20:41;;;;;;;2.78;1.67;;;;;;;-145.41;100.00;58600.66;5019984;28;20062;-78
2023/07/21 02:23:08;;;;;;;2.67;1.75;;;;;;;-145.41;100.00;58600.66;5007816;28;20041;-77
2023/07/21 02:25:36;;;;;;;3.15;1.90;;;;;;;-145.41;100.00;58600.66;5010039;28;20105;-77
2023/07/21 02:28:02;;;;;;;2.83;1.70;;;;;;;-145.41;100.00;58600.66;5021240;28;20062;-78
2023/07/21 02:30:27;;;;;;;3.10;2.30;;;;;;;-145.41;100.00;58600.66;5015159;28;20038;-78
2023/07/21 02:32:52;;;;;;;3.40;2.08;;;;;;;-145.41;100.00;58600.66;5019835;28;20625;-78
2023/07/21 02:35:18;;;;;;;3.70;1.98;;;;;;;-145.41;100.00;58600.66;5021582;28;20026;-78
2023/07/21 02:37:45;;;;;;;2.63;1.58;;;;;;;-145.41;100.00;58600.66;5020148;28;20084;-78
2023/07/21 02:40:12;;;;;;;3.60;2.20;;;;;;;-145.41;100.00;58600.66;5023283;28;20046;-78
2023/07/21 02:42:37;;;;;;;3.33;2.10;;;;;;;-145.41;100.00;58600.66;5024295;28;20053;-78
2023/07/21 02:45:04;;;;;;;4.25;1.98;;;;;;;-145.41;100.00;58600.66;5008306;28;20038;-79
2023/07/21 02:47:30;;;;;;;3.00;1.92;;;;;;;-145.41;100.00;58600.66;5023353;28;20058;-79
2023/07/21 02:49:56;;;;;;;4.30;2.63;;;;;;;-145.41;100.00;58600.66;5024893;28;20040;-78
2023/07/21 02:52:21;;;;;;;4.03;2.65;;;;;;;-145.41;100.00;58600.66;5024811;28;20117;-79
2023/07/21 02:54:51;;;;;;;3.00;1.77;;;;;;;-145.41;100.00;58600.66;5015035;28;20535;-78
2023/07/21 02:57:17;;;;;;;3.00;1.77;;;;;;;-145.41;100.00;58600.66;5023665;28;20120;-78
2023/07/21 02:59:43;;;;;;;2.60;1.50;;;;;;;-145.41;100.00;58600.66;5023838;28;20034;-78
2023/07/21 03:02:09;;;;;;;4.47;1.92;;;;;;;-145.41;100.00;58600.66;5028904;28;20033;-78
2023/07/21 03:04:43;;;;;;;3.72;2.22;;;;;;;-145.41;100.00;58600.66;5024085;28;20030;-78
2023/07/21 03:07:11;;;;;;;4.13;2.20;;;;;;;-145.41;100.00;58600.66;5026646;28;20037;-78
2023/07/21 03:09:38;;;;;;;3.95;2.30;;;;;;;-145.41;100.00;58600.66;5024926;28;20030;-78
2023/07/21 03:12:12;;;;;;;3.85;2.72;;;;;;;-145.41;100.00;58600.66;5024591;28;20076;-78
2023/07/21 03:15:05;;;;;;;6.72;2.33;;;;;;;-145.41;100.00;58600.66;5023402;28;20496;-78
2023/07/21 03:17:44;;;;;;;5.03;2.45;;;;;;;-145.41;100.00;58600.66;5018782;28;20042;-78
2023/07/21 03:20:12;;;;;;;3.53;2.50;;;;;;;-145.41;100.00;58600.66;5021732;28;20030;-78
2023/07/21 03:22:44;;;;;;;5.50;3.55;;;;;;;-145.41;100.00;58600.66;5021408;28;20038;-78
2023/07/21 03:25:13;;;;;;;4.35;3.13;;;;;;;-145.41;100.00;58600.66;5021735;28;20088;-78
2023/07/21 03:27:39;;;;;;;4.72;3.20;;;;;;;-145.41;100.00;58600.66;5024455;28;20097;-78
2023/07/21 03:30:09;;;;;;;4.93;2.97;;;;;;;-145.41;100.00;58600.66;5020815;28;20053;-78
2023/07/21 03:32:39;;;;;;;5.13;3.60;;;;;;;-145.41;100.00;58600.66;5014718;28;20045;-78
2023/07/21 03:35:05;;;;;;;3.78;2.55;;;;;;;-145.41;100.00;58600.66;5021338;28;20029;-78
2023/07/21 03:37:34;;;;;;;4.85;2.85;;;;;;;-145.41;100.00;58600.66;5023903;28;20034;-78
2023/07/21 03:40:06;;;;;;;5.18;3.53;;;;;;;-145.41;100.00;58600.66;5023434;28;20034;-78
2023/07/21 03:42:35;;;;;;;5.18;3.95;;;;;;;-145.41;100.00;58600.66;5027220;28;20026;-79
2023/07/21 03:45:04;;;;;;;9.73;5.53;;;;;;;-145.41;100.00;58600.66;5023120;28;20057;-78
2023/07/21 03:47:34;;;;;;;7.45;5.20;;;;;;;-145.41;100.00;58600.66;5020439;28;20061;-78
2023/07/21 03:50:00;;;;;;;7.35;4.50;;;;;;;-145.41;100.00;58600.66;5023472;28;20029;-78
2023/07/21 03:52:27;;;;;;;5.65;3.63;;;;;;;-145.41;100.00;58600.66;5005669;28;20528;-78
2023/07/21 03:54:53;;;;;;;6.65;4.70;;;;;;;-145.41;100.00;58600.66;5019492;28;20017;-78
2023/07/21 03:57:20;;;;;;;6.43;4.95;;;;;;;-145.41;100.00;58600.66;5015442;28;20033;-78
2023/07/21 03:59:46;;;;;;;9.98;5.63;;;;;;;-145.41;100.00;58600.66;5019345;28;20112;-77
2023/07/21 04:02:12;;;;;;;7.45;5.80;;;;;;;-145.41;100.00;58600.66;5017618;28;20151;-78
2023/07/21 04:04:37;;;;;;;8.25;5.80;;;;;;;-145.41;100.00;58600.66;5018462;28;20057;-78
2023/07/21 04:07:05;;;;;;;8.63;6.30;;;;;;;-145.41;100.00;58600.66;5006623;28;20030;-78
2023/07/21 04:09:34;;;;;;;7.88;6.22;;;;;;;-145.41;100.00;58600.66;5006385;28;20080;-77
2023/07/21 04:11:59;;;;;;;9.75;6.88;;;;;;;-145.41;100.00;58600.66;5017068;28;20440;-78
2023/07/21 04:14:25;;;;;;;8.60;5.93;;;;;;;-145.41;100.00;58600.66;5022380;28;20033;-79
2023/07/21 04:16:51;;;;;;;7.50;5.60;;;;;;;-145.41;100.00;58600.66;5025465;28;20438;-78
2023/07/21 04:19:17;;;;;;;7.80;6.10;;;;;;;-145.41;100.00;58600.66;5007911;28;20037;-78
2023/07/21 04:21:43;;;;;;;6.40;5.25;;;;;;;-145.41;100.00;58600.66;5019442;28;20030;-78
2023/07/21 04:24:10;;;;;;;6.40;5.03;;;;;;;-145.41;100.00;58600.66;5023406;28;20046;-78
2023/07/21 04:26:36;;;;;;;7.25;4.90;;;;;;;-145.41;100.00;58600.66;5016915;28;20064;-79
2023/07/21 04:29:02;;;;;;;6.53;5.20;;;;;;;-145.41;100.00;58600.66;5023204;28;20046;-79
2023/07/21 04:31:28;;;;;;;7.05;4.40;;;;;;;-145.41;100.00;58600.66;5016647;28;20040;-78
2023/07/21 04:34:05;;;;;;;12.38;6.13;;;;;;;-145.41;100.00;58600.66;5018421;28;20026;-78
2023/07/21 04:36:32;;;;;;;5.57;4.43;;;;;;;-145.41;100.00;58600.66;5023197;28;20097;-79
2023/07/21 04:39:02;;;;;;;6.93;4.13;;;;;;;-145.41;100.00;58600.66;5014563;28;20038;-78
2023/07/21 04:41:28;;;;;;;5.15;3.88;;;;;;;-145.41;100.00;58600.66;5023440;28;20069;-79
2023/07/21 04:43:53;;;;;;;8.70;4.03;;;;;;;-145.41;100.00;58600.66;5022997;28;20030;-79
2023/07/21 04:46:18;;;;;;;5.60;4.40;;;;;;;-145.41;100.00;58600.66;5020397;28;20068;-77
2023/07/21 04:48:45;;;;;;;6.35;5.13;;;;;;;-145.41;100.00;58600.66;5017328;28;20029;-77
2023/07/21 04:51:14;;;;;;;8.10;7.03;;;;;;;-145.41;100.00;58600.66;5020501;28;20670;-79
2023/07/21 04:53:42;;;;;;;9.15;7.97;;;;;;;-145.41;100.00;58600.66;5037955;28;20064;-78
2023/07/21 04:56:07;;;;;;;9.00;6.63;;;;;;;-145.41;100.00;58600.66;5015046;28;20060;-77
2023/07/21 04:58:38;;;;;;;11.77;9.70;;;;;;;-145.41;100.00;58600.66;5012359;28;20630;-77
2023/07/21 05:01:05;;;;;;;9.50;8.50;;;;;;;-145.41;100.00;58600.66;5009016;28;20030;-77
2023/07/21 05:03:31;;;;;;;10.93;9.35;;;;;;;-145.41;100.00;58600.66;5012535;28;20482;-77
2023/07/21 05:05:56;;;;;;;13.05;10.50;;;;;;;-145.41;100.00;58600.66;5014241;28;20112;-77
2023/07/21 05:08:25;;;;;;;11.45;9.55;;;;;;;-145.41;100.00;58600.66;5013981;28;20515;-77
2023/07/21 05:10:53;;;;;;;6.70;6.00;;;;;;;-145.41;100.00;58600.66;5012785;28;20148;-77
2023/07/21 05:13:18;;;;;;;5.85;4.43;;;;;;;-145.41;100.00;58600.66;5013426;28;20041;-77
2023/07/21 05:16:00;;;;;;;7.18;4.85;;;;;;;-145.41;100.00;58600.66;5000099;28;20030;-77
2023/07/21 05:18:44;;;;;;;8.15;5.88;;;;;;;-145.41;100.00;58600.66;5010660;28;20423;-77
2023/07/21 05:21:28;;;;;;;6.80;5.30;;;;;;;-145.41;100.00;58600.66;5012177;22;20068;-76
2023/07/21 05:23:59;;;;;;;7.97;5.75;;;;;;;-145.41;100.00;58600.66;4989324;28;20034;-76
2023/07/21 05:26:24;;;;;;;6.68;5.82;;;;;;;-145.41;100.00;58600.66;4988588;28;20035;-76
2023/07/21 05:28:50;;;;;;;7.95;5.18;;;;;;;-145.41;100.00;58600.66;4990381;28;20088;-75
2023/07/21 05:31:18;;;;;;;5.68;5.07;;;;;;;-145.41;100.00;58600.66;4983900;28;20445;-75
2023/07/21 05:33:52;;;;;;;7.65;5.22;;;;;;;-145.41;100.00;58600.66;4980622;28;20026;-77
2023/07/21 05:36:18;;;;;;;6.75;5.13;;;;;;;-145.41;100.00;58600.66;4979979;28;20081;-77
2023/07/21 05:38:44;;;;;;;8.95;6.63;;;;;;;-145.41;100.00;58600.66;4977367;28;20058;-76
2023/07/21 05:41:09;;;;;;;10.40;7.25;;;;;;;-145.41;100.00;58600.66;4984942;28;20681;-77
2023/07/21 05:43:36;;;;;;;12.80;10.98;;;;;;;-145.41;100.00;58600.66;4982893;28;20033;-76
2023/07/21 05:46:06;;;;;;;11.50;10.25;;;;;;;-145.41;100.00;58600.66;4986246;28;20117;-76
2023/07/21 05:48:33;;;;;;;7.95;7.15;;;;;;;-145.41;100.00;58600.66;4980336;28;20034;-76
2023/07/21 05:51:01;;;;;;;6.43;5.50;;;;;;;-145.41;100.00;58600.66;4983365;28;20030;-77
2023/07/21 05:53:27;;;;;;;9.32;8.25;;;;;;;-145.41;100.00;58600.66;4983855;28;20505;-76
2023/07/21 05:55:53;;;;;;;6.25;5.65;;;;;;;-145.41;100.00;58600.66;4979360;28;20061;-77
2023/07/21 05:58:35;;;;;;;9.15;8.05;;;;;;;-145.41;100.00;58600.66;4982648;28;20038;-76
2023/07/21 06:01:01;;;;;;;14.95;10.80;;;;;;;-145.41;100.00;58600.66;4973711;28;20027;-76
2023/07/21 06:03:26;;;;;;;9.95;7.80;;;;;;;-145.41;100.00;58600.66;4980097;28;20121;-76
2023/07/21 06:05:53;;;;;;;6.15;5.32;;;;;;;-145.41;100.00;58600.66;4980064;28;20041;-77
2023/07/21 06:08:30;;;;;;;6.90;5.13;;;;;;;-145.41;100.00;58600.66;4979785;28;20485;-77
2023/07/21 06:11:18;;;;;;;8.95;6.15;;;;;;;-145.41;100.00;58600.66;4980138;28;20046;-77
2023/07/21 06:13:47;;;;;;;12.02;10.15;;;;;;;-145.41;100.00;58600.66;4979717;28;20034;-76
2023/07/21 06:16:31;;;;;;;10.27;8.60;;;;;;;-145.41;100.00;58600.66;4977167;28;20046;-77
2023/07/21 06:18:56;;;;;;;7.90;6.75;;;;;;;-145.41;100.00;58600.66;4985210;28;20026;-76
2023/07/21 06:21:22;;;;;;;6.90;4.80;;;;;;;-145.41;100.00;58600.66;4968601;28;20094;-77
2023/07/21 06:23:48;;;;;;;5.85;5.22;;;;;;;-145.41;100.00;58600.66;4981853;28;20046;-77
2023/07/21 06:26:13;;;;;;;5.70;4.43;;;;;;;-145.41;100.00;58600.66;4983182;28;20456;-77
2023/07/21 06:28:39;;;;;;;4.85;4.30;;;;;;;-145.41;100.00;58600.66;4974384;28;20035;-76
2023/07/21 06:31:04;;;;;;;3.95;3.33;;;;;;;-145.41;100.00;58600.66;4978150;28;20473;-77
2023/07/21 06:33:46;;;;;;;5.82;3.70;;;;;;;-145.41;100.00;58600.66;4984835;28;20019;-76
2023/07/21 06:36:30;;;;;;;3.90;3.10;;;;;;;-145.41;100.00;58600.66;4987424;28;20053;-77
2023/07/21 06:39:33;;;;;;;4.75;3.90;;;;;;;-145.41;100.00;58600.66;4974950;28;20038;-78
2023/07/21 06:42:05;;;;;;;5.65;3.38;;;;;;;-145.41;100.00;58600.66;4968495;28;20030;-77
2023/07/21 06:44:53;;;;;;;6.15;3.15;;;;;;;-145.41;100.00;58600.66;4974913;28;20073;-77
2023/07/21 06:47:30;;;;;;;3.42;2.45;;;;;;;-145.41;100.00;58600.66;4984392;28;20041;-77
2023/07/21 06:50:22;;;;;;;6.30;2.92;;;;;;;-145.41;100.00;58600.66;4979552;28;20034;-76
2023/07/21 06:52:50;;;;;;;4.70;3.45;;;;;;;-145.41;100.00;58600.66;4984303;28;20030;-77
2023/07/21 06:55:16;;;;;;;4.55;3.38;;;;;;;-145.41;100.00;58600.66;4983195;28;20392;-77
2023/07/21 06:57:41;;;;;;;2.70;1.92;;;;;;;-145.41;100.00;58600.66;4990692;28;20033;-77
2023/07/21 07:00:07;;;;;;;8.70;3.28;;;;;;;-145.41;100.00;58600.66;4978972;28;20045;-78
2023/07/21 07:02:33;;;;;;;2.65;1.88;;;;;;;-145.41;100.00;58600.66;4982668;28;20113;-77
2023/07/21 07:04:59;;;;;;;3.25;2.03;;;;;;;-145.41;100.00;58600.66;4982861;28;20061;-76
2023/07/21 07:07:24;;;;;;;3.75;2.22;;;;;;;-145.41;100.00;58600.66;4988213;28;20070;-76
2023/07/21 07:09:49;;;;;;;3.75;1.88;;;;;;;-145.41;100.00;58600.66;4976778;28;20038;-77
2023/07/21 07:12:17;;;;;;;3.78;2.70;;;;;;;-145.41;100.00;58600.66;4982888;28;20058;-76
2023/07/21 07:14:46;;;;;;;4.97;3.13;;;;;;;-145.41;100.00;58600.66;4980970;28;20054;-76
2023/07/21 07:17:12;;;;;;;3.47;2.20;;;;;;;-145.41;100.00;58600.66;4981313;28;20445;-77
2023/07/21 07:19:38;;;;;;;6.03;4.43;;;;;;;-145.41;100.00;58600.66;4986556;28;20042;-77
2023/07/21 07:22:08;;;;;;;3.20;2.25;;;;;;;-145.41;100.00;58600.66;4981208;28;20046;-76
2023/07/21 07:24:36;;;;;;;2.90;1.90;;;;;;;-145.41;100.00;58600.66;4976575;28;20031;-76
2023/07/21 07:27:02;;;;;;;3.92;2.25;;;;;;;-145.41;100.00;58600.66;4984441;28;20030;-77
2023/07/21 07:29:28;;;;;;;3.33;1.70;;;;;;;-145.41;100.00;58600.66;4978911;28;20038;-76
2023/07/21 07:31:53;;;;;;;3.28;1.70;;;;;;;-145.41;100.00;58600.66;4976137;28;20472;-77
2023/07/21 07:34:18;;;;;;;3.92;2.83;;;;;;;-145.41;100.00;58600.66;4981231;28;20038;-77
2023/07/21 07:36:44;;;;;;;5.50;2.13;;;;;;;-145.41;100.00;58600.66;4977134;28;20070;-75
2023/07/21 07:39:11;;;;;;;3.85;2.42;;;;;;;-145.41;100.00;58600.66;4982328;28;20030;-78
2023/07/21 07:41:40;;;;;;;3.00;1.60;;;;;;;-145.41;100.00;58600.66;4978097;28;20489;-78
2023/07/21 07:44:09;;;;;;;4.32;2.75;;;;;;;-145.41;100.00;58600.66;4981327;28;20035;-77
2023/07/21 07:46:35;;;;;;;4.57;2.33;;;;;;;-145.41;100.00;58600.66;4979287;28;20073;-78
2023/07/21 07:49:00;;;;;;;6.03;3.03;;;;;;;-145.41;100.00;58600.66;4984565;28;20081;-76
2023/07/21 07:51:26;;;;;;;3.55;1.73;;;;;;;-145.41;100.00;58600.66;4985161;28;20034;-78
2023/07/21 07:53:52;;;;;;;6.22;3.15;;;;;;;-145.41;100.00;58600.66;4984396;28;20026;-78
2023/07/21 07:56:18;;;;;;;6.55;2.65;;;;;;;-145.41;100.00;58600.66;4990569;28;20038;-78
2023/07/21 07:58:43;;;;;;;8.23;5.25;;;;;;;-145.41;100.00;58600.66;4985503;28;20111;-77
2023/07/21 08:01:13;;;;;;;4.68;3.75;;;;;;;-145.41;100.00;58600.66;4984228;28;20034;-78
2023/07/21 08:03:43;;;;;;;5.57;3.67;;;;;;;-145.41;100.00;58600.66;4984608;28;20568;-78
2023/07/21 08:06:10;;;;;;;5.35;2.70;;;;;;;-145.41;100.00;58600.66;4983417;28;20093;-76
2023/07/21 08:08:35;;;;;;;7.85;3.28;;;;;;;-145.41;100.00;58600.66;4986538;28;20080;-78
2023/07/21 08:11:02;;;;;;;5.72;3.50;;;;;;;-145.41;100.00;58600.66;4984796;28;20485;-77
2023/07/21 08:13:27;;;;;;;5.07;3.92;;;;;;;-145.41;100.00;58600.66;4991851;28;20556;-76
2023/07/21 08:15:52;;;;;;;4.82;3.50;;;;;;;-145.41;100.00;58600.66;4976088;28;20077;-77
2023/07/21 08:18:17;;;;;;;5.70;3.25;;;;;;;-145.41;100.00;58600.66;4983275;28;20104;-78
2023/07/21 08:20:43;;;;;;;6.35;2.55;;;;;;;-145.41;100.00;58600.66;4970887;28;20042;-76
2023/07/21 08:23:09;;;;;;;4.05;2.40;;;;;;;-145.41;100.00;58600.66;4977538;28;20485;-79
2023/07/21 08:25:34;;;;;;;5.88;2.80;;;;;;;-145.41;100.00;58600.66;4987412;28;20038;-78
2023/07/21 08:28:03;;;;;;;5.05;2.50;;;;;;;-145.41;100.00;58600.66;4986572;28;20090;-78
2023/07/21 08:30:28;;;;;;;5.30;2.60;;;;;;;-145.41;100.00;58600.66;4985792;28;20394;-78
2023/07/21 08:32:56;;;;;;;3.58;2.00;;;;;;;-145.41;100.00;58600.66;4980062;28;20053;-78
2023/07/21 08:35:21;;;;;;;3.78;1.60;;;;;;;-145.41;100.00;58600.66;4984210;28;20034;-77
2023/07/21 08:37:47;;;;;;;3.33;1.80;;;;;;;-145.41;100.00;58600.66;4983750;28;20042;-78
2023/07/21 08:40:12;;;;;;;3.03;1.38;;;;;;;-145.41;100.00;58600.66;4979726;28;20035;-77
2023/07/21 08:42:38;;;;;;;3.17;1.20;;;;;;;-145.41;100.00;58600.66;4982182;28;20073;-77
2023/07/21 08:45:05;;;;;;;2.33;0.95;;;;;;;-145.41;100.00;58600.66;4989886;28;20057;-78
2023/07/21 08:47:31;;;;;;;4.30;1.95;;;;;;;-145.41;100.00;58600.66;4978771;28;20074;-77
2023/07/21 08:49:57;;;;;;;6.35;2.40;;;;;;;-145.41;100.00;58600.66;4983467;28;20061;-77
2023/07/21 08:52:23;;;;;;;3.75;2.08;;;;;;;-145.41;100.00;58600.66;4988483;28;20026;-77
2023/07/21 08:54:48;;;;;;;3.13;1.95;;;;;;;-145.41;100.00;58600.66;4978016;28;20035;-77
2023/07/21 08:57:14;;;;;;;3.35;1.42;;;;;;;-145.41;100.00;58600.66;4983577;28;20031;-77
2023/07/21 08:59:40;;;;;;;3.55;1.65;;;;;;;-145.41;100.00;58600.66;4987689;28;20038;-78
2023/07/21 09:02:06;;;;;;;5.75;2.10;;;;;;;-145.41;100.00;58600.66;4979584;28;20066;-77
2023/07/21 09:04:31;;;;;;;3.22;1.92;;;;;;;-145.41;100.00;58600.66;4987704;28;20125;-79
2023/07/21 09:07:01;;;;;;;4.88;3.30;;;;;;;-145.41;100.00;58600.66;4980847;28;20089;-79
2023/07/21 09:09:31;;;;;;;7.78;3.30;;;;;;;-145.41;100.00;58600.66;4982328;28;20038;-78
2023/07/21 09:12:05;;;;;;;3.55;1.50;;;;;;;-145.41;100.00;58600.66;4984522;28;20041;-78
2023/07/21 09:14:44;;;;;;;2.28;1.10;;;;;;;-145.41;100.00;58600.66;4980557;28;20029;-78
2023/07/21 09:17:12;;;;;;;3.28;1.30;;;;;;;-145.41;100.00;58600.66;4978025;28;20460;-79
2023/07/21 09:19:42;;;;;;;1.88;1.08;;;;;;;-145.41;100.00;58600.66;4979734;28;20039;-78
2023/07/21 09:22:08;;;;;;;4.33;1.30;;;;;;;-145.41;100.00;58600.66;4975631;28;20072;-77
2023/07/21 09:24:35;;;;;;;4.63;1.60;;;;;;;-145.41;100.00;58600.66;4983527;28;20501;-76
2023/07/21 09:27:13;;;;;;;2.28;1.13;;;;;;;-145.41;100.00;58600.66;4982540;28;20038;-77
2023/07/21 09:29:40;;;;;;;5.03;3.15;;;;;;;-145.41;100.00;58600.66;4984478;28;20133;-79
2023/07/21 09:32:16;;;;;;;5.05;2.80;;;;;;;-145.41;100.00;58600.66;4984478;28;20042;-77
2023/07/21 09:35:04;;;;;;;5.78;2.47;;;;;;;-145.41;100.00;58600.66;4979185;28;20118;-77
2023/07/21 09:37:32;;;;;;;2.90;1.70;;;;;;;-145.41;100.00;58600.66;4984640;28;20100;-77
2023/07/21 09:39:59;;;;;;;4.07;2.30;;;;;;;-145.41;100.00;58600.66;4973389;28;20142;-77
2023/07/21 09:42:26;;;;;;;4.32;2.35;;;;;;;-145.41;100.00;58600.66;4984676;28;20034;-77
2023/07/21 09:44:53;;;;;;;3.47;1.63;;;;;;;-145.41;100.00;58600.66;4986725;28;20486;-77
2023/07/21 09:47:19;;;;;;;5.97;2.00;;;;;;;-145.41;100.00;58600.66;4977684;28;20030;-77
2023/07/21 09:49:44;;;;;;;3.17;1.92;;;;;;;-145.41;100.00;58600.66;4984717;28;20095;-77
2023/07/21 09:52:13;;;;;;;4.68;2.08;;;;;;;-145.41;100.00;58600.66;4984891;28;20031;-77
2023/07/21 09:54:44;;;;;;;3.15;1.20;;;;;;;-145.41;100.00;58600.66;4983312;28;20031;-78
2023/07/21 09:57:19;;;;;;;3.65;1.80;;;;;;;-145.41;100.00;58600.66;4975693;28;20038;-78
2023/07/21 09:59:48;;;;;;;2.22;1.10;;;;;;;-145.41;100.00;58600.66;4973874;28;20034;-78
2023/07/21 10:02:15;;;;;;;3.38;1.23;;;;;;;-145.41;100.00;58600.66;4978381;28;20037;-77
2023/07/21 10:04:41;;;;;;;5.03;1.88;;;;;;;-145.41;100.00;58600.66;4980209;28;20039;-79
2023/07/21 10:07:09;;;;;;;4.35;1.40;;;;;;;-145.41;100.00;58600.66;4984558;28;20050;-77
2023/07/21 10:09:36;;;;;;;2.92;1.60;;;;;;;-145.41;100.00;58600.66;4987425;28;20810;-79
2023/07/21 10:12:16;;;;;;;2.70;1.48;;;;;;;-145.41;100.00;58600.66;4976942;28;20034;-78
2023/07/21 10:14:42;;;;;;;2.88;1.40;;;;;;;-145.41;100.00;58600.66;4980096;28;20041;-79
2023/07/21 10:17:08;;;;;;;3.53;2.05;;;;;;;-145.41;100.00;58600.66;4980238;28;20041;-78
2023/07/21 10:19:47;;;;;;;4.22;1.88;;;;;;;-145.41;100.00;58600.66;4977575;28;20038;-78
2023/07/21 10:22:23;;;;;;;3.50;1.35;;;;;;;-145.41;100.00;58600.66;4987107;28;20038;-79
2023/07/21 10:24:51;;;;;;;5.05;2.22;;;;;;;-145.41;100.00;58600.66;4978948;28;20049;-78
2023/07/21 10:27:23;;;;;;;2.65;1.30;;;;;;;-145.41;100.00;58600.66;4974544;28;20046;-77
2023/07/21 10:29:56;;;;;;;2.78;1.00;;;;;;;-145.41;100.00;58600.66;4979857;28;20031;-78
2023/07/21 10:32:22;;;;;;;3.75;1.30;;;;;;;-145.41;100.00;58600.66;4976752;28;20070;-78
2023/07/21 10:34:51;;;;;;;2.75;1.35;;;;;;;-145.41;100.00;58600.66;4981239;28;20055;-78
2023/07/21 10:37:17;;;;;;;2.35;1.40;;;;;;;-145.41;100.00;58600.66;4980841;28;20058;-79
2023/07/21 10:39:53;;;;;;;2.75;1.00;;;;;;;-145.41;100.00;58600.66;4975541;28;20514;-79
2023/07/21 10:42:18;;;;;;;2.50;1.42;;;;;;;-145.41;100.00;58600.66;4980251;28;20077;-78
2023/07/21 10:44:46;;;;;;;3.28;1.88;;;;;;;-145.41;100.00;58600.66;4974134;28;20158;-78
2023/07/21 10:47:13;;;;;;;2.45;1.35;;;;;;;-145.41;100.00;58600.66;4978216;28;20027;-79
2023/07/21 10:49:39;;;;;;;3.65;1.50;;;;;;;-145.41;100.00;58600.66;4977075;28;20047;-78
2023/07/21 10:52:04;;;;;;;2.85;1.17;;;;;;;-145.41;100.00;58600.66;4976983;28;20062;-78
2023/07/21 10:54:30;;;;;;;2.47;1.40;;;;;;;-145.41;100.00;58600.66;4973352;28;20034;-77
2023/07/21 10:56:58;;;;;;;2.50;1.38;;;;;;;-145.41;100.00;58600.66;4977765;28;20111;-79
2023/07/21 10:59:24;;;;;;;2.55;1.30;;;;;;;-145.41;100.00;58600.66;4971338;28;20035;-77
2023/07/21 11:01:52;;;;;;;2.92;1.70;;;;;;;-145.41;100.00;58600.66;4982835;28;20054;-78
2023/07/21 11:04:19;;;;;;;4.93;1.58;;;;;;;-145.41;100.00;58600.66;4981654;28;20500;-78
2023/07/21 11:06:46;;;;;;;3.30;1.50;;;;;;;-145.41;100.00;58600.66;4982167;28;20041;-77
2023/07/21 11:09:12;;;;;;;6.57;1.30;;;;;;;-145.41;100.00;58600.66;4980055;28;20076;-80
2023/07/21 11:11:42;;;;;;;3.70;1.60;;;;;;;-145.41;100.00;58600.66;4980629;28;20431;-78
2023/07/21 11:14:16;;;;;;;1.83;0.95;;;;;;;-145.41;100.00;58600.66;4980941;28;20394;-78